createdAt,value
2018-12-01T00:00:44.577Z,0.00
2018-12-01T00:01:44.573Z,0.00
2018-12-01T00:02:44.552Z,0.00
2018-12-01T00:03:44.550Z,0.00
2018-12-01T00:04:44.552Z,0.00
2018-12-01T00:05:44.518Z,0.00
2018-12-01T00:06:44.509Z,0.00
2018-12-01T00:07:44.498Z,0.00
2018-12-01T00:08:44.486Z,0.00
2018-12-01T00:09:44.494Z,0.00
2018-12-01T00:10:44.459Z,0.00
2018-12-01T00:11:44.459Z,0.00
2018-12-01T00:12:44.439Z,0.00
2018-12-01T00:13:44.441Z,0.00
2018-12-01T00:14:44.450Z,0.00
2018-12-01T00:15:44.417Z,0.00
2018-12-01T00:16:44.398Z,0.00
2018-12-01T00:17:44.399Z,0.00
2018-12-01T00:18:44.395Z,0.00
2018-12-01T00:19:44.401Z,0.00
2018-12-01T00:20:44.365Z,0.00
2018-12-01T00:21:44.358Z,0.00
2018-12-01T00:22:44.330Z,0.00
2018-12-01T00:23:44.326Z,0.00
2018-12-01T00:24:44.347Z,0.00
2018-12-01T00:25:44.294Z,0.00
2018-12-01T00:26:44.296Z,0.00
2018-12-01T00:27:44.304Z,0.00
2018-12-01T00:28:44.275Z,0.00
2018-12-01T00:29:44.268Z,0.00
2018-12-01T00:30:44.256Z,0.00
2018-12-01T00:31:44.241Z,0.00
2018-12-01T00:32:44.234Z,0.00
2018-12-01T00:33:44.246Z,0.00
2018-12-01T00:34:44.216Z,0.00
2018-12-01T00:35:44.217Z,0.00
2018-12-01T00:36:44.197Z,0.00
2018-12-01T00:37:44.185Z,0.00
2018-12-01T00:38:44.176Z,0.00
2018-12-01T00:39:44.157Z,0.00
2018-12-01T00:40:44.159Z,0.00
2018-12-01T00:41:44.126Z,0.00
2018-12-01T00:42:44.128Z,0.00
2018-12-01T00:43:44.106Z,0.00
2018-12-01T00:44:44.106Z,0.00
2018-12-01T00:45:44.094Z,0.00
2018-12-01T00:46:44.064Z,0.00
2018-12-01T00:47:44.069Z,0.00
2018-12-01T00:48:44.041Z,0.00
2018-12-01T00:49:44.043Z,0.00
2018-12-01T00:50:44.056Z,0.00
2018-12-01T00:51:44.012Z,0.00
2018-12-01T00:52:44.000Z,0.00
2018-12-01T00:53:44.007Z,0.00
2018-12-01T00:54:44.003Z,0.00
2018-12-01T00:55:43.989Z,0.00
2018-12-01T00:56:43.958Z,0.00
2018-12-01T00:57:43.943Z,0.00
2018-12-01T00:58:43.936Z,0.00
2018-12-01T00:59:43.923Z,0.00
2018-12-01T01:00:43.954Z,0.00
2018-12-01T01:01:43.912Z,0.00
2018-12-01T01:02:43.886Z,0.00
2018-12-01T01:03:43.885Z,0.00
2018-12-01T01:04:43.874Z,0.00
2018-12-01T01:05:43.885Z,0.00
2018-12-01T01:06:43.854Z,0.00
2018-12-01T01:07:43.896Z,0.00
2018-12-01T01:08:43.890Z,0.00
2018-12-01T01:09:43.816Z,0.00
2018-12-01T01:10:43.824Z,0.00
2018-12-01T01:11:43.807Z,0.00
2018-12-01T01:12:43.785Z,0.00
2018-12-01T01:13:43.799Z,0.00
2018-12-01T01:14:43.754Z,0.00
2018-12-01T01:15:43.765Z,0.00
2018-12-01T01:16:43.759Z,0.00
2018-12-01T01:17:43.728Z,0.00
2018-12-01T01:18:43.722Z,0.00
2018-12-01T01:19:43.704Z,0.00
2018-12-01T01:20:43.709Z,0.00
2018-12-01T01:21:43.693Z,0.00
2018-12-01T01:22:43.674Z,0.00
2018-12-01T01:23:43.670Z,0.00
2018-12-01T01:24:43.670Z,0.00
2018-12-01T01:25:43.661Z,0.00
2018-12-01T01:26:43.643Z,0.00
2018-12-01T01:27:43.621Z,0.00
2018-12-01T01:28:43.613Z,0.00
2018-12-01T01:29:43.599Z,0.00
2018-12-01T01:30:43.598Z,0.00
2018-12-01T01:31:43.605Z,0.00
2018-12-01T01:32:43.568Z,0.00
2018-12-01T01:33:43.552Z,0.00
2018-12-01T01:34:43.545Z,0.00
2018-12-01T01:35:43.543Z,0.00
2018-12-01T01:36:43.541Z,0.00
2018-12-01T01:37:43.504Z,0.00
2018-12-01T01:38:43.495Z,0.00
2018-12-01T01:39:43.505Z,0.00
2018-12-01T01:40:43.477Z,0.00
2018-12-01T01:41:43.479Z,0.00
2018-12-01T01:42:43.467Z,0.00
2018-12-01T01:43:44.206Z,0.00
2018-12-01T01:44:43.437Z,0.00
2018-12-01T01:45:43.416Z,0.00
2018-12-01T01:46:43.437Z,0.00
2018-12-01T01:47:43.411Z,0.00
2018-12-01T01:48:43.410Z,0.00
2018-12-01T01:49:43.380Z,0.00
2018-12-01T01:50:43.371Z,0.00
2018-12-01T01:51:43.402Z,0.00
2018-12-01T01:52:43.347Z,0.00
2018-12-01T01:53:43.348Z,0.00
2018-12-01T01:54:43.347Z,0.00
2018-12-01T01:55:43.319Z,0.00
2018-12-01T01:56:43.369Z,0.00
2018-12-01T01:57:43.294Z,0.00
2018-12-01T01:58:43.294Z,0.00
2018-12-01T01:59:43.286Z,0.00
2018-12-01T02:00:43.272Z,0.00
2018-12-01T02:01:43.265Z,0.00
2018-12-01T02:02:43.241Z,0.00
2018-12-01T02:03:43.240Z,0.00
2018-12-01T02:04:43.221Z,0.00
2018-12-01T02:05:43.208Z,0.00
2018-12-01T02:06:43.224Z,0.00
2018-12-01T02:07:43.183Z,0.00
2018-12-01T02:08:43.165Z,0.00
2018-12-01T02:09:43.157Z,0.00
2018-12-01T02:10:43.148Z,0.00
2018-12-01T02:11:43.158Z,0.00
2018-12-01T02:12:43.128Z,0.00
2018-12-01T02:13:43.130Z,0.00
2018-12-01T02:14:43.117Z,0.00
2018-12-01T02:15:43.103Z,0.00
2018-12-01T02:16:43.106Z,0.00
2018-12-01T02:17:43.080Z,0.00
2018-12-01T02:18:43.064Z,0.00
2018-12-01T02:19:43.056Z,0.00
2018-12-01T02:20:43.051Z,0.00
2018-12-01T02:21:43.065Z,0.00
2018-12-01T02:22:43.029Z,0.00
2018-12-01T02:23:43.026Z,0.00
2018-12-01T02:24:43.000Z,0.00
2018-12-01T02:25:42.990Z,0.00
2018-12-01T02:26:43.021Z,0.00
2018-12-01T02:27:42.975Z,0.00
2018-12-01T02:28:42.963Z,0.00
2018-12-01T02:29:42.941Z,0.00
2018-12-01T02:30:42.949Z,0.00
2018-12-01T02:31:42.950Z,0.00
2018-12-01T02:32:42.926Z,0.00
2018-12-01T02:33:42.908Z,0.00
2018-12-01T02:34:42.912Z,0.00
2018-12-01T02:35:42.886Z,0.00
2018-12-01T02:36:42.867Z,0.00
2018-12-01T02:37:42.875Z,0.00
2018-12-01T02:38:42.854Z,0.00
2018-12-01T02:39:42.838Z,0.00
2018-12-01T02:40:42.832Z,0.00
2018-12-01T02:41:42.849Z,0.00
2018-12-01T02:42:42.841Z,0.00
2018-12-01T02:43:42.798Z,0.00
2018-12-01T02:44:42.771Z,0.00
2018-12-01T02:45:42.771Z,0.00
2018-12-01T02:46:42.755Z,0.00
2018-12-01T02:47:42.756Z,0.00
2018-12-01T02:48:42.740Z,0.00
2018-12-01T02:49:42.720Z,0.00
2018-12-01T02:50:42.719Z,0.00
2018-12-01T02:51:42.706Z,0.00
2018-12-01T02:52:42.713Z,0.00
2018-12-01T02:53:42.690Z,0.00
2018-12-01T02:54:42.667Z,0.00
2018-12-01T02:55:42.657Z,0.00
2018-12-01T02:56:42.678Z,0.00
2018-12-01T02:57:42.653Z,0.00
2018-12-01T02:58:42.622Z,0.00
2018-12-01T02:59:42.613Z,0.00
2018-12-01T03:00:42.600Z,0.00
2018-12-01T03:01:42.591Z,0.00
2018-12-01T03:02:42.619Z,0.00
2018-12-01T03:03:42.587Z,0.00
2018-12-01T03:04:42.581Z,0.00
2018-12-01T03:05:42.550Z,0.00
2018-12-01T03:06:42.540Z,0.00
2018-12-01T03:07:42.542Z,0.00
2018-12-01T03:08:42.520Z,0.00
2018-12-01T03:09:42.505Z,0.00
2018-12-01T03:10:42.490Z,0.00
2018-12-01T03:11:42.488Z,0.00
2018-12-01T03:12:42.508Z,0.00
2018-12-01T03:13:42.462Z,0.00
2018-12-01T03:14:42.453Z,0.00
2018-12-01T03:15:42.437Z,0.00
2018-12-01T03:16:42.442Z,0.00
2018-12-01T03:17:42.432Z,0.00
2018-12-01T03:18:42.417Z,0.00
2018-12-01T03:19:42.400Z,0.00
2018-12-01T03:20:42.392Z,0.00
2018-12-01T03:21:42.366Z,0.00
2018-12-01T03:22:42.376Z,0.00
2018-12-01T03:23:42.342Z,0.00
2018-12-01T03:24:42.334Z,0.00
2018-12-01T03:25:42.328Z,0.00
2018-12-01T03:26:42.320Z,0.00
2018-12-01T03:27:42.351Z,0.00
2018-12-01T03:28:42.291Z,0.00
2018-12-01T03:29:42.287Z,0.00
2018-12-01T03:30:42.290Z,0.00
2018-12-01T03:31:42.266Z,0.00
2018-12-01T03:32:42.264Z,0.00
2018-12-01T03:33:42.254Z,0.00
2018-12-01T03:34:42.225Z,0.00
2018-12-01T03:35:42.219Z,0.00
2018-12-01T03:36:42.206Z,0.00
2018-12-01T03:37:42.189Z,0.00
2018-12-01T03:38:42.202Z,0.00
2018-12-01T03:39:42.176Z,0.00
2018-12-01T03:40:42.167Z,0.00
2018-12-01T03:41:42.164Z,0.00
2018-12-01T03:42:42.136Z,0.00
2018-12-01T03:43:42.142Z,0.00
2018-12-01T03:44:42.114Z,0.00
2018-12-01T03:45:42.107Z,0.00
2018-12-01T03:46:42.094Z,0.00
2018-12-01T03:47:42.099Z,0.00
2018-12-01T03:48:42.085Z,0.00
2018-12-01T03:49:42.059Z,0.00
2018-12-01T03:50:42.058Z,0.00
2018-12-01T03:51:42.035Z,0.00
2018-12-01T03:52:42.032Z,0.00
2018-12-01T03:53:42.031Z,0.00
2018-12-01T03:54:42.002Z,0.00
2018-12-01T03:55:42.011Z,0.00
2018-12-01T03:56:41.989Z,0.00
2018-12-01T03:57:41.977Z,0.00
2018-12-01T03:58:41.977Z,0.00
2018-12-01T03:59:41.963Z,0.00
2018-12-01T04:00:41.940Z,0.00
2018-12-01T04:01:41.927Z,0.00
2018-12-01T04:02:41.928Z,0.00
2018-12-01T04:03:41.920Z,0.00
2018-12-01T04:04:41.905Z,0.00
2018-12-01T04:05:41.889Z,0.00
2018-12-01T04:06:41.873Z,0.00
2018-12-01T04:07:41.882Z,0.00
2018-12-01T04:08:41.881Z,0.00
2018-12-01T04:09:41.850Z,0.00
2018-12-01T04:10:41.842Z,0.00
2018-12-01T04:11:41.826Z,0.00
2018-12-01T04:12:41.817Z,0.00
2018-12-01T04:13:41.818Z,0.00
2018-12-01T04:14:41.785Z,0.00
2018-12-01T04:15:41.776Z,0.00
2018-12-01T04:16:41.763Z,0.00
2018-12-01T04:17:41.759Z,0.00
2018-12-01T04:18:41.766Z,0.00
2018-12-01T04:19:41.769Z,0.00
2018-12-01T04:20:41.728Z,0.00
2018-12-01T04:21:41.709Z,0.00
2018-12-01T04:22:41.719Z,0.00
2018-12-01T04:23:41.727Z,0.00
2018-12-01T04:24:41.677Z,0.00
2018-12-01T04:25:41.666Z,0.00
2018-12-01T04:26:41.660Z,0.00
2018-12-01T04:27:41.644Z,0.00
2018-12-01T04:28:41.643Z,0.00
2018-12-01T04:29:41.650Z,0.00
2018-12-01T04:30:41.626Z,0.00
2018-12-01T04:31:41.606Z,0.00
2018-12-01T04:32:41.599Z,0.00
2018-12-01T04:33:41.586Z,0.00
2018-12-01T04:34:41.589Z,0.00
2018-12-01T04:35:41.562Z,0.00
2018-12-01T04:36:41.554Z,0.00
2018-12-01T04:37:41.534Z,0.00
2018-12-01T04:38:41.529Z,0.00
2018-12-01T04:39:41.528Z,0.00
2018-12-01T04:40:41.502Z,0.00
2018-12-01T04:41:41.493Z,0.00
2018-12-01T04:42:41.478Z,0.00
2018-12-01T04:43:41.468Z,0.00
2018-12-01T04:44:41.476Z,0.00
2018-12-01T04:45:41.451Z,0.00
2018-12-01T04:46:41.450Z,0.00
2018-12-01T04:47:41.450Z,0.00
2018-12-01T04:48:41.430Z,0.00
2018-12-01T04:49:41.422Z,0.00
2018-12-01T04:50:41.398Z,0.00
2018-12-01T04:51:41.391Z,0.00
2018-12-01T04:52:41.380Z,0.00
2018-12-01T04:53:41.437Z,0.00
2018-12-01T04:54:41.387Z,0.00
2018-12-01T04:55:41.342Z,0.00
2018-12-01T04:56:41.332Z,0.00
2018-12-01T04:57:41.334Z,0.00
2018-12-01T04:58:41.321Z,0.00
2018-12-01T04:59:41.314Z,0.00
2018-12-01T05:00:41.314Z,0.00
2018-12-01T05:01:41.282Z,0.00
2018-12-01T05:02:41.280Z,0.00
2018-12-01T05:03:41.276Z,0.00
2018-12-01T05:04:41.271Z,0.00
2018-12-01T05:05:41.253Z,0.00
2018-12-01T05:06:41.251Z,0.00
2018-12-01T05:07:41.218Z,0.00
2018-12-01T05:08:41.222Z,0.00
2018-12-01T05:09:41.222Z,0.00
2018-12-01T05:10:41.188Z,0.00
2018-12-01T05:11:41.165Z,0.00
2018-12-01T05:12:41.203Z,0.00
2018-12-01T05:13:41.144Z,0.00
2018-12-01T05:14:41.148Z,0.00
2018-12-01T05:15:41.157Z,0.00
2018-12-01T05:16:41.122Z,0.00
2018-12-01T05:17:41.098Z,0.00
2018-12-01T05:18:41.095Z,0.00
2018-12-01T05:19:41.102Z,0.00
2018-12-01T05:20:41.106Z,0.00
2018-12-01T05:21:41.070Z,0.00
2018-12-01T05:22:41.057Z,0.00
2018-12-01T05:23:41.039Z,0.00
2018-12-01T05:24:41.041Z,0.00
2018-12-01T05:25:41.017Z,0.00
2018-12-01T05:26:41.283Z,0.00
2018-12-01T05:27:41.016Z,0.00
2018-12-01T05:28:40.999Z,0.00
2018-12-01T05:29:41.001Z,0.00
2018-12-01T05:30:40.968Z,0.00
2018-12-01T05:31:40.955Z,0.00
2018-12-01T05:32:40.954Z,0.00
2018-12-01T05:33:40.944Z,0.00
2018-12-01T05:34:41.241Z,0.00
2018-12-01T05:35:40.909Z,0.00
2018-12-01T05:36:40.904Z,0.00
2018-12-01T05:37:40.887Z,0.00
2018-12-01T05:38:40.875Z,0.00
2018-12-01T05:39:40.877Z,0.00
2018-12-01T05:40:40.872Z,0.00
2018-12-01T05:41:40.854Z,0.00
2018-12-01T05:42:40.829Z,0.00
2018-12-01T05:43:40.821Z,0.00
2018-12-01T05:44:40.810Z,0.00
2018-12-01T05:45:40.813Z,0.00
2018-12-01T05:46:40.789Z,0.00
2018-12-01T05:47:40.785Z,0.00
2018-12-01T05:48:40.776Z,0.00
2018-12-01T05:49:40.756Z,0.00
2018-12-01T05:50:40.752Z,0.00
2018-12-01T05:51:40.742Z,0.00
2018-12-01T05:52:40.725Z,0.00
2018-12-01T05:53:40.812Z,0.00
2018-12-01T05:54:40.705Z,0.00
2018-12-01T05:55:40.739Z,0.00
2018-12-01T05:56:40.696Z,0.00
2018-12-01T05:57:40.675Z,0.00
2018-12-01T05:58:40.650Z,0.00
2018-12-01T05:59:40.640Z,0.00
2018-12-01T06:00:40.675Z,0.00
2018-12-01T06:01:40.614Z,0.00
2018-12-01T06:02:40.619Z,0.00
2018-12-01T06:03:40.614Z,0.00
2018-12-01T06:04:40.592Z,0.00
2018-12-01T06:05:40.630Z,0.00
2018-12-01T06:06:40.581Z,0.00
2018-12-01T06:07:40.572Z,0.00
2018-12-01T06:08:40.543Z,0.00
2018-12-01T06:09:40.543Z,0.00
2018-12-01T06:10:40.531Z,0.00
2018-12-01T06:11:40.518Z,0.00
2018-12-01T06:12:40.508Z,0.00
2018-12-01T06:13:40.501Z,0.00
2018-12-01T06:14:40.493Z,0.00
2018-12-01T06:15:40.494Z,0.00
2018-12-01T06:16:40.454Z,0.00
2018-12-01T06:17:40.500Z,0.00
2018-12-01T06:18:40.443Z,0.00
2018-12-01T06:19:40.424Z,0.00
2018-12-01T06:20:40.430Z,0.00
2018-12-01T06:21:40.422Z,0.00
2018-12-01T06:22:40.438Z,0.00
2018-12-01T06:23:40.382Z,0.00
2018-12-01T06:24:40.393Z,0.00
2018-12-01T06:25:40.370Z,4.00
2018-12-01T06:26:40.360Z,4.00
2018-12-01T06:27:40.731Z,4.00
2018-12-01T06:28:40.324Z,4.00
2018-12-01T06:29:40.319Z,4.00
2018-12-01T06:30:40.324Z,8.00
2018-12-01T06:31:40.289Z,4.00
2018-12-01T06:32:40.278Z,8.00
2018-12-01T06:33:40.269Z,8.00
2018-12-01T06:34:40.270Z,8.00
2018-12-01T06:35:40.285Z,12.00
2018-12-01T06:36:40.254Z,12.00
2018-12-01T06:37:40.235Z,16.00
2018-12-01T06:38:40.216Z,16.00
2018-12-01T06:39:40.198Z,20.00
2018-12-01T06:40:40.207Z,20.00
2018-12-01T06:41:40.185Z,20.00
2018-12-01T06:42:40.185Z,24.00
2018-12-01T06:43:40.171Z,28.00
2018-12-01T06:44:40.148Z,28.00
2018-12-01T06:45:40.254Z,32.00
2018-12-01T06:46:40.144Z,36.00
2018-12-01T06:47:40.115Z,36.00
2018-12-01T06:48:40.100Z,40.00
2018-12-01T06:49:40.100Z,44.00
2018-12-01T06:50:40.181Z,48.00
2018-12-01T06:51:40.179Z,52.00
2018-12-01T06:52:40.081Z,56.00
2018-12-01T06:53:40.118Z,60.00
2018-12-01T06:54:41.025Z,64.00
2018-12-01T06:55:40.058Z,68.00
2018-12-01T06:56:40.096Z,72.00
2018-12-01T06:57:40.012Z,80.00
2018-12-01T06:58:39.989Z,84.00
2018-12-01T06:59:39.980Z,84.00
2018-12-01T07:00:39.983Z,92.00
2018-12-01T07:01:41.141Z,92.00
2018-12-01T07:02:40.462Z,92.00
2018-12-01T07:03:40.217Z,88.00
2018-12-01T07:04:45.026Z,92.00
2018-12-01T07:05:39.942Z,96.00
2018-12-01T07:06:40.210Z,92.00
2018-12-01T07:07:40.069Z,88.00
2018-12-01T07:08:39.920Z,88.00
2018-12-01T07:09:39.907Z,84.00
2018-12-01T07:10:39.876Z,84.00
2018-12-01T07:11:39.890Z,88.00
2018-12-01T07:12:39.847Z,88.00
2018-12-01T07:13:39.828Z,92.00
2018-12-01T07:14:39.854Z,96.00
2018-12-01T07:15:39.804Z,96.00
2018-12-01T07:16:40.860Z,108.00
2018-12-01T07:17:39.785Z,112.00
2018-12-01T07:18:40.508Z,120.00
2018-12-01T07:19:39.939Z,128.00
2018-12-01T07:20:39.989Z,132.00
2018-12-01T07:21:41.235Z,136.00
2018-12-01T07:22:39.733Z,148.00
2018-12-01T07:23:40.071Z,160.00
2018-12-01T07:24:40.235Z,164.00
2018-12-01T07:25:39.698Z,164.00
2018-12-01T07:26:39.702Z,168.00
2018-12-01T07:27:39.708Z,168.00
2018-12-01T07:28:39.791Z,168.00
2018-12-01T07:29:39.657Z,168.00
2018-12-01T07:30:40.420Z,168.00
2018-12-01T07:31:40.137Z,168.00
2018-12-01T07:32:39.624Z,176.00
2018-12-01T07:33:47.192Z,180.00
2018-12-01T07:34:40.729Z,184.00
2018-12-01T07:35:39.587Z,188.00
2018-12-01T07:36:39.598Z,196.00
2018-12-01T07:37:39.615Z,204.00
2018-12-01T07:38:39.560Z,212.00
2018-12-01T07:39:39.546Z,224.00
2018-12-01T07:40:39.533Z,240.00
2018-12-01T07:41:39.537Z,256.00
2018-12-01T07:42:39.511Z,260.00
2018-12-01T07:43:39.953Z,264.00
2018-12-01T07:44:42.471Z,272.00
2018-12-01T07:45:39.481Z,280.00
2018-12-01T07:46:39.485Z,288.00
2018-12-01T07:47:39.465Z,304.00
2018-12-01T07:48:39.450Z,320.00
2018-12-01T07:49:39.443Z,336.00
2018-12-01T07:50:39.425Z,344.00
2018-12-01T07:51:39.450Z,356.00
2018-12-01T07:52:39.406Z,352.00
2018-12-01T07:53:39.401Z,344.00
2018-12-01T07:54:39.390Z,352.00
2018-12-01T07:55:39.372Z,364.00
2018-12-01T07:56:39.361Z,376.00
2018-12-01T07:57:39.368Z,384.00
2018-12-01T07:58:39.370Z,392.00
2018-12-01T07:59:39.347Z,400.00
2018-12-01T08:00:43.549Z,400.00
2018-12-01T08:01:41.650Z,388.00
2018-12-01T08:02:39.311Z,384.00
2018-12-01T08:03:39.367Z,368.00
2018-12-01T08:04:39.291Z,360.00
2018-12-01T08:05:39.290Z,368.00
2018-12-01T08:06:39.257Z,384.00
2018-12-01T08:07:40.909Z,404.00
2018-12-01T08:08:39.233Z,412.00
2018-12-01T08:09:39.247Z,432.00
2018-12-01T08:10:39.210Z,448.00
2018-12-01T08:11:39.204Z,484.00
2018-12-01T08:12:39.207Z,520.00
2018-12-01T08:13:39.328Z,556.00
2018-12-01T08:14:39.272Z,584.00
2018-12-01T08:15:39.174Z,576.00
2018-12-01T08:16:39.200Z,564.00
2018-12-01T08:17:39.155Z,584.00
2018-12-01T08:18:39.128Z,616.00
2018-12-01T08:19:39.155Z,632.00
2018-12-01T08:20:39.108Z,636.00
2018-12-01T08:21:39.128Z,684.00
2018-12-01T08:22:39.113Z,736.00
2018-12-01T08:23:39.078Z,736.00
2018-12-01T08:24:39.067Z,740.00
2018-12-01T08:25:39.082Z,776.00
2018-12-01T08:26:39.057Z,808.00
2018-12-01T08:27:39.055Z,832.00
2018-12-01T08:28:39.036Z,848.00
2018-12-01T08:29:39.044Z,852.00
2018-12-01T08:30:39.006Z,856.00
2018-12-01T08:31:38.997Z,872.00
2018-12-01T08:32:38.996Z,872.00
2018-12-01T08:33:38.962Z,860.00
2018-12-01T08:34:39.407Z,860.00
2018-12-01T08:35:39.522Z,864.00
2018-12-01T08:36:38.931Z,840.00
2018-12-01T08:37:38.934Z,860.00
2018-12-01T08:38:38.956Z,876.00
2018-12-01T08:39:38.908Z,872.00
2018-12-01T08:40:38.929Z,876.00
2018-12-01T08:41:38.879Z,876.00
2018-12-01T08:42:38.912Z,888.00
2018-12-01T08:43:38.858Z,928.00
2018-12-01T08:44:38.849Z,920.00
2018-12-01T08:45:38.844Z,896.00
2018-12-01T08:46:38.825Z,900.00
2018-12-01T08:47:38.834Z,916.00
2018-12-01T08:48:38.809Z,920.00
2018-12-01T08:49:38.794Z,912.00
2018-12-01T08:50:38.803Z,928.00
2018-12-01T08:51:38.772Z,924.00
2018-12-01T08:52:38.775Z,952.00
2018-12-01T08:53:38.757Z,980.00
2018-12-01T08:54:38.739Z,1004.00
2018-12-01T08:55:38.729Z,992.00
2018-12-01T08:56:38.740Z,1024.00
2018-12-01T08:57:38.727Z,1124.00
2018-12-01T08:58:38.712Z,1300.00
2018-12-01T08:59:38.692Z,1452.00
2018-12-01T09:00:38.681Z,1348.00
2018-12-01T09:01:38.664Z,1420.00
2018-12-01T09:02:38.691Z,1288.00
2018-12-01T09:03:38.651Z,1240.00
2018-12-01T09:04:38.633Z,1156.00
2018-12-01T09:05:38.634Z,1152.00
2018-12-01T09:06:38.612Z,1168.00
2018-12-01T09:07:38.603Z,1172.00
2018-12-01T09:08:38.609Z,1168.00
2018-12-01T09:09:38.587Z,1208.00
2018-12-01T09:10:38.570Z,1196.00
2018-12-01T09:11:38.558Z,1176.00
2018-12-01T09:12:38.577Z,1188.00
2018-12-01T09:13:38.583Z,1124.00
2018-12-01T09:14:38.847Z,1064.00
2018-12-01T09:15:38.749Z,1008.00
2018-12-01T09:16:38.507Z,992.00
2018-12-01T09:17:39.021Z,1008.00
2018-12-01T09:18:38.506Z,1024.00
2018-12-01T09:19:38.478Z,1056.00
2018-12-01T09:20:38.465Z,1072.00
2018-12-01T09:21:38.463Z,1068.00
2018-12-01T09:22:38.449Z,1088.00
2018-12-01T09:23:38.452Z,1096.00
2018-12-01T09:24:38.427Z,1116.00
2018-12-01T09:25:38.414Z,1152.00
2018-12-01T09:26:38.402Z,1184.00
2018-12-01T09:27:38.396Z,1212.00
2018-12-01T09:28:38.399Z,1240.00
2018-12-01T09:29:38.366Z,1284.00
2018-12-01T09:30:38.360Z,1296.00
2018-12-01T09:31:38.346Z,1320.00
2018-12-01T09:32:38.335Z,1372.00
2018-12-01T09:33:38.354Z,1348.00
2018-12-01T09:34:38.318Z,1368.00
2018-12-01T09:35:38.303Z,1368.00
2018-12-01T09:36:38.295Z,1336.00
2018-12-01T09:37:38.315Z,1312.00
2018-12-01T09:38:38.324Z,1292.00
2018-12-01T09:39:38.266Z,1272.00
2018-12-01T09:40:38.284Z,1236.00
2018-12-01T09:41:38.260Z,1224.00
2018-12-01T09:42:38.314Z,1260.00
2018-12-01T09:43:38.249Z,1220.00
2018-12-01T09:44:38.208Z,1196.00
2018-12-01T09:45:38.219Z,1204.00
2018-12-01T09:46:38.187Z,1220.00
2018-12-01T09:47:38.286Z,1240.00
2018-12-01T09:48:38.550Z,1288.00
2018-12-01T09:49:38.164Z,1376.00
2018-12-01T09:50:38.148Z,1380.00
2018-12-01T09:51:38.135Z,1428.00
2018-12-01T09:52:38.132Z,1340.00
2018-12-01T09:53:38.137Z,1384.00
2018-12-01T09:54:38.101Z,1276.00
2018-12-01T09:55:38.109Z,1256.00
2018-12-01T09:56:38.087Z,1252.00
2018-12-01T09:57:38.082Z,1264.00
2018-12-01T09:58:38.555Z,1296.00
2018-12-01T09:59:38.048Z,1308.00
2018-12-01T10:00:38.101Z,1300.00
2018-12-01T10:01:38.063Z,1292.00
2018-12-01T10:02:38.016Z,1308.00
2018-12-01T10:03:38.070Z,1320.00
2018-12-01T10:04:38.004Z,1360.00
2018-12-01T10:05:38.063Z,1476.00
2018-12-01T10:06:37.974Z,1584.00
2018-12-01T10:07:37.974Z,1756.00
2018-12-01T10:08:37.972Z,2012.00
2018-12-01T10:09:37.955Z,1976.00
2018-12-01T10:10:37.931Z,1648.00
2018-12-01T10:11:38.253Z,1524.00
2018-12-01T10:12:38.663Z,1824.00
2018-12-01T10:13:37.918Z,1768.00
2018-12-01T10:14:37.927Z,1828.00
2018-12-01T10:15:37.878Z,1808.00
2018-12-01T10:16:37.907Z,1568.00
2018-12-01T10:17:39.313Z,1680.00
2018-12-01T10:18:37.868Z,1772.00
2018-12-01T10:19:37.837Z,1836.00
2018-12-01T10:20:38.728Z,2056.00
2018-12-01T10:21:37.814Z,2012.00
2018-12-01T10:22:37.823Z,2112.00
2018-12-01T10:23:37.876Z,2156.00
2018-12-01T10:24:37.792Z,2184.00
2018-12-01T10:25:37.782Z,2188.00
2018-12-01T10:26:37.871Z,2240.00
2018-12-01T10:27:37.775Z,2128.00
2018-12-01T10:28:37.800Z,1656.00
2018-12-01T10:29:37.728Z,1696.00
2018-12-01T10:30:37.723Z,1584.00
2018-12-01T10:31:42.366Z,1488.00
2018-12-01T10:32:37.709Z,1516.00
2018-12-01T10:33:37.684Z,1564.00
2018-12-01T10:34:37.691Z,1648.00
2018-12-01T10:35:37.675Z,1748.00
2018-12-01T10:36:37.653Z,1844.00
2018-12-01T10:37:37.645Z,1900.00
2018-12-01T10:38:37.639Z,1972.00
2018-12-01T10:39:40.408Z,2088.00
2018-12-01T10:40:37.606Z,2176.00
2018-12-01T10:41:37.594Z,2224.00
2018-12-01T10:42:40.051Z,2300.00
2018-12-01T10:43:38.298Z,2392.00
2018-12-01T10:44:37.589Z,2516.00
2018-12-01T10:45:37.556Z,2560.00
2018-12-01T10:46:37.546Z,2752.00
2018-12-01T10:47:37.631Z,1536.00
2018-12-01T10:48:38.333Z,2880.00
2018-12-01T10:49:37.576Z,2960.00
2018-12-01T10:50:37.502Z,3044.00
2018-12-01T10:51:37.491Z,3132.00
2018-12-01T10:52:37.474Z,3220.00
2018-12-01T10:53:37.465Z,3244.00
2018-12-01T10:54:37.481Z,3304.00
2018-12-01T10:55:37.452Z,3388.00
2018-12-01T10:56:37.431Z,1044.00
2018-12-01T10:57:37.812Z,840.00
2018-12-01T10:58:37.412Z,856.00
2018-12-01T10:59:37.420Z,832.00
2018-12-01T11:00:37.408Z,840.00
2018-12-01T11:01:37.393Z,856.00
2018-12-01T11:02:37.366Z,888.00
2018-12-01T11:03:37.357Z,980.00
2018-12-01T11:04:37.360Z,1084.00
2018-12-01T11:05:37.349Z,1760.00
2018-12-01T11:06:37.338Z,3512.00
2018-12-01T11:07:37.367Z,3700.00
2018-12-01T11:08:37.340Z,3720.00
2018-12-01T11:09:37.318Z,3580.00
2018-12-01T11:10:37.292Z,3612.00
2018-12-01T11:11:37.301Z,2864.00
2018-12-01T11:12:37.276Z,3684.00
2018-12-01T11:13:37.263Z,3680.00
2018-12-01T11:14:37.285Z,3348.00
2018-12-01T11:15:37.234Z,1864.00
2018-12-01T11:16:37.215Z,2736.00
2018-12-01T11:17:37.218Z,3676.00
2018-12-01T11:18:37.195Z,3672.00
2018-12-01T11:19:37.218Z,3620.00
2018-12-01T11:20:37.189Z,3640.00
2018-12-01T11:21:37.169Z,3664.00
2018-12-01T11:22:37.154Z,3764.00
2018-12-01T11:23:37.151Z,3816.00
2018-12-01T11:24:37.136Z,3916.00
2018-12-01T11:25:37.144Z,4056.00
2018-12-01T11:26:37.107Z,4232.00
2018-12-01T11:27:37.101Z,4316.00
2018-12-01T11:28:37.086Z,4456.00
2018-12-01T11:29:37.086Z,4556.00
2018-12-01T11:30:37.097Z,4568.00
2018-12-01T11:31:37.074Z,4304.00
2018-12-01T11:32:37.043Z,4312.00
2018-12-01T11:33:37.061Z,4236.00
2018-12-01T11:34:37.082Z,4256.00
2018-12-01T11:35:37.037Z,4316.00
2018-12-01T11:36:36.990Z,4204.00
2018-12-01T11:37:36.998Z,4472.00
2018-12-01T11:38:36.968Z,4464.00
2018-12-01T11:39:36.963Z,4460.00
2018-12-01T11:40:36.971Z,1344.00
2018-12-01T11:41:36.959Z,1408.00
2018-12-01T11:42:37.249Z,1132.00
2018-12-01T11:43:36.913Z,1088.00
2018-12-01T11:44:36.908Z,1036.00
2018-12-01T11:45:36.922Z,1024.00
2018-12-01T11:46:36.885Z,1048.00
2018-12-01T11:47:36.879Z,1128.00
2018-12-01T11:48:36.886Z,1160.00
2018-12-01T11:49:36.846Z,1640.00
2018-12-01T11:50:36.851Z,1316.00
2018-12-01T11:51:36.832Z,1260.00
2018-12-01T11:52:36.817Z,1296.00
2018-12-01T11:53:36.819Z,1136.00
2018-12-01T11:54:36.793Z,940.00
2018-12-01T11:55:38.107Z,904.00
2018-12-01T11:56:36.770Z,904.00
2018-12-01T11:57:36.760Z,956.00
2018-12-01T11:58:37.088Z,1120.00
2018-12-01T11:59:36.736Z,1220.00
2018-12-01T12:00:36.742Z,1204.00
2018-12-01T12:01:36.715Z,1248.00
2018-12-01T12:02:36.703Z,1320.00
2018-12-01T12:03:36.699Z,1452.00
2018-12-01T12:04:36.716Z,1608.00
2018-12-01T12:05:36.707Z,1844.00
2018-12-01T12:06:36.658Z,1988.00
2018-12-01T12:07:37.490Z,2012.00
2018-12-01T12:08:36.635Z,2020.00
2018-12-01T12:09:36.628Z,1804.00
2018-12-01T12:10:36.627Z,1652.00
2018-12-01T12:11:36.639Z,1700.00
2018-12-01T12:12:37.027Z,1852.00
2018-12-01T12:13:36.580Z,2892.00
2018-12-01T12:14:36.571Z,2768.00
2018-12-01T12:15:36.557Z,3868.00
2018-12-01T12:16:36.598Z,3616.00
2018-12-01T12:17:39.909Z,3972.00
2018-12-01T12:18:38.457Z,3624.00
2018-12-01T12:19:36.759Z,3664.00
2018-12-01T12:20:36.504Z,3184.00
2018-12-01T12:21:37.094Z,3152.00
2018-12-01T12:22:39.542Z,3260.00
2018-12-01T12:23:36.466Z,3252.00
2018-12-01T12:24:36.464Z,3472.00
2018-12-01T12:25:36.442Z,4272.00
2018-12-01T12:26:36.446Z,4428.00
2018-12-01T12:27:36.423Z,4512.00
2018-12-01T12:28:36.445Z,4932.00
2018-12-01T12:29:36.403Z,4836.00
2018-12-01T12:30:36.389Z,4592.00
2018-12-01T12:31:36.392Z,3008.00
2018-12-01T12:32:36.375Z,3952.00
2018-12-01T12:33:36.375Z,3408.00
2018-12-01T12:34:36.344Z,2940.00
2018-12-01T12:35:36.335Z,1592.00
2018-12-01T12:36:36.336Z,1660.00
2018-12-01T12:37:38.473Z,1064.00
2018-12-01T12:38:36.320Z,1080.00
2018-12-01T12:39:36.292Z,1144.00
2018-12-01T12:40:36.278Z,1320.00
2018-12-01T12:41:36.293Z,1824.00
2018-12-01T12:42:36.277Z,1900.00
2018-12-01T12:43:36.257Z,1688.00
2018-12-01T12:44:36.234Z,1724.00
2018-12-01T12:45:36.255Z,1884.00
2018-12-01T12:46:36.490Z,1992.00
2018-12-01T12:47:36.353Z,1736.00